createdAt,value
2022-10-04T00:00:41.644Z,15.70
2022-10-04T00:03:30.155Z,15.79
2022-10-04T00:06:00.300Z,15.68
2022-10-04T00:08:37.144Z,15.59
2022-10-04T00:11:14.735Z,15.67
2022-10-04T00:13:47.013Z,15.76
2022-10-04T00:16:21.918Z,15.78
2022-10-04T00:18:48.497Z,15.52
2022-10-04T00:21:15.045Z,15.45
2022-10-04T00:23:44.417Z,15.27
2022-10-04T00:26:22.883Z,15.72
2022-10-04T00:28:50.090Z,15.67
2022-10-04T00:31:19.432Z,15.70
2022-10-04T00:33:47.466Z,15.62
2022-10-04T00:36:25.631Z,15.61
2022-10-04T00:39:04.772Z,15.60
2022-10-04T00:41:37.273Z,15.35
2022-10-04T00:44:09.165Z,15.02
2022-10-04T00:46:40.592Z,15.46
2022-10-04T00:49:09.285Z,15.55
2022-10-04T00:51:52.532Z,15.45
2022-10-04T00:54:42.085Z,15.46
2022-10-04T00:57:17.967Z,15.47
2022-10-04T00:59:47.230Z,15.61
2022-10-04T01:02:33.695Z,15.67
2022-10-04T01:05:10.716Z,15.66
2022-10-04T01:07:51.427Z,14.88
2022-10-04T01:10:45.847Z,15.27
2022-10-04T01:13:21.242Z,15.64
2022-10-04T01:15:56.898Z,15.42
2022-10-04T01:18:23.225Z,15.57
2022-10-04T01:20:54.568Z,15.52
2022-10-04T01:23:41.709Z,15.46
2022-10-04T01:26:26.423Z,15.48
2022-10-04T01:28:53.327Z,15.51
2022-10-04T01:31:21.399Z,15.28
2022-10-04T01:33:48.473Z,15.51
2022-10-04T01:36:15.333Z,15.50
2022-10-04T01:38:41.928Z,15.29
2022-10-04T01:41:10.806Z,15.41
2022-10-04T01:43:42.635Z,15.24
2022-10-04T01:46:22.361Z,14.47
2022-10-04T01:48:48.836Z,14.75
2022-10-04T01:51:21.359Z,14.69
2022-10-04T01:53:54.395Z,15.35
2022-10-04T01:56:26.654Z,15.09
2022-10-04T01:59:06.261Z,15.12
2022-10-04T02:01:38.664Z,15.17
2022-10-04T02:04:31.857Z,15.24
2022-10-04T02:07:00.906Z,15.03
2022-10-04T02:09:32.005Z,15.16
2022-10-04T02:11:59.617Z,15.14
2022-10-04T02:14:31.999Z,14.59
2022-10-04T02:17:01.876Z,14.61
2022-10-04T02:19:35.392Z,15.20
2022-10-04T02:22:07.077Z,15.12
2022-10-04T02:24:37.087Z,15.08
2022-10-04T02:27:03.633Z,14.79
2022-10-04T02:29:30.023Z,14.93
2022-10-04T02:32:15.175Z,14.47
2022-10-04T02:34:41.888Z,14.92
2022-10-04T02:37:08.822Z,14.70
2022-10-04T02:39:40.670Z,14.96
2022-10-04T02:42:20.249Z,14.86
2022-10-04T02:44:57.003Z,14.54
2022-10-04T02:47:29.326Z,14.87
2022-10-04T02:50:01.677Z,14.25
2022-10-04T02:52:46.417Z,15.01
2022-10-04T02:55:15.646Z,14.96
2022-10-04T02:57:43.583Z,14.79
2022-10-04T03:00:19.302Z,14.89
2022-10-04T03:03:23.511Z,15.04
2022-10-04T03:06:06.368Z,14.73
2022-10-04T03:08:44.162Z,14.85
2022-10-04T03:11:13.930Z,14.62
2022-10-04T03:13:44.825Z,14.68
2022-10-04T03:16:11.391Z,14.86
2022-10-04T03:18:38.164Z,14.63
2022-10-04T03:21:12.058Z,14.89
2022-10-04T03:23:39.706Z,14.79
2022-10-04T03:26:19.079Z,14.96
2022-10-04T03:28:46.166Z,14.68
2022-10-04T03:31:14.496Z,14.73
2022-10-04T03:33:43.219Z,14.69
2022-10-04T03:36:14.963Z,14.72
2022-10-04T03:38:41.339Z,13.96
2022-10-04T03:41:11.550Z,14.26
2022-10-04T03:43:44.174Z,14.80
2022-10-04T03:46:12.704Z,14.63
2022-10-04T03:48:51.146Z,14.86
2022-10-04T03:51:21.966Z,14.58
2022-10-04T03:53:52.168Z,14.58
2022-10-04T03:56:35.229Z,14.80
2022-10-04T03:59:06.349Z,14.91
2022-10-04T04:01:42.786Z,14.76
2022-10-04T04:04:17.885Z,14.86
2022-10-04T04:06:54.279Z,14.76
2022-10-04T04:09:35.406Z,14.73
2022-10-04T04:12:06.314Z,14.22
2022-10-04T04:14:32.798Z,14.56
2022-10-04T04:17:25.674Z,14.76
2022-10-04T04:19:54.830Z,14.70
2022-10-04T04:22:21.578Z,14.39
2022-10-04T04:24:49.619Z,14.71
2022-10-04T04:27:18.053Z,14.70
2022-10-04T04:29:50.306Z,14.72
2022-10-04T04:32:34.839Z,14.46
2022-10-04T04:35:10.090Z,14.75
2022-10-04T04:37:37.919Z,14.79
2022-10-04T04:40:22.453Z,14.74
2022-10-04T04:42:49.897Z,14.90
2022-10-04T04:45:22.731Z,14.70
2022-10-04T04:47:54.046Z,14.27
2022-10-04T04:50:24.450Z,14.84
2022-10-04T04:52:55.315Z,14.51
2022-10-04T04:55:25.942Z,14.88
2022-10-04T04:57:55.996Z,14.67
2022-10-04T05:00:28.574Z,14.90
2022-10-04T05:02:58.846Z,14.91
2022-10-04T05:05:33.430Z,14.84
2022-10-04T05:08:29.473Z,14.90
2022-10-04T05:11:08.260Z,14.91
2022-10-04T05:13:46.327Z,14.64
2022-10-04T05:16:20.027Z,14.56
2022-10-04T05:18:46.985Z,14.55
2022-10-04T05:21:29.979Z,14.35
2022-10-04T05:23:58.865Z,14.44
2022-10-04T05:26:28.967Z,14.57
2022-10-04T05:28:59.127Z,14.13
2022-10-04T05:31:33.053Z,14.63
2022-10-04T05:33:59.603Z,14.60
2022-10-04T05:36:52.846Z,14.35
2022-10-04T05:39:25.348Z,14.41
2022-10-04T05:42:10.027Z,14.34
2022-10-04T05:44:44.703Z,14.34
2022-10-04T05:47:14.230Z,14.25
2022-10-04T05:49:44.311Z,13.65
2022-10-04T05:52:38.525Z,14.13
2022-10-04T05:55:26.203Z,13.47
2022-10-04T05:58:19.057Z,14.27
2022-10-04T06:01:03.939Z,14.50
2022-10-04T06:03:48.137Z,14.36
2022-10-04T06:06:33.034Z,14.58
2022-10-04T06:09:09.148Z,14.66
2022-10-04T06:12:17.240Z,14.69
2022-10-04T06:15:17.295Z,14.61
2022-10-04T06:17:52.793Z,14.61
2022-10-04T06:20:35.935Z,14.41
2022-10-04T06:23:12.095Z,14.45
2022-10-04T06:25:47.051Z,14.14
2022-10-04T06:28:24.343Z,14.41
2022-10-04T06:31:18.502Z,14.41
2022-10-04T06:34:06.633Z,14.60
2022-10-04T06:36:55.252Z,14.55
2022-10-04T06:39:24.559Z,14.69
2022-10-04T06:42:20.778Z,14.54
2022-10-04T06:44:56.373Z,14.70
2022-10-04T06:48:00.960Z,14.67
2022-10-04T06:50:45.193Z,14.57
2022-10-04T06:53:42.083Z,14.59
2022-10-04T06:56:24.597Z,14.62
2022-10-04T06:59:19.048Z,14.40
2022-10-04T07:01:51.778Z,14.67
2022-10-04T07:04:55.755Z,14.63
2022-10-04T07:07:35.393Z,14.74
2022-10-04T07:10:30.953Z,14.77
2022-10-04T07:13:03.400Z,14.73
2022-10-04T07:15:50.435Z,14.74
2022-10-04T07:18:26.976Z,14.70
2022-10-04T07:21:15.597Z,14.11
2022-10-04T07:23:51.700Z,14.72
2022-10-04T07:26:51.934Z,14.50
2022-10-04T07:29:30.919Z,14.82
2022-10-04T07:32:21.173Z,14.72
2022-10-04T07:35:04.168Z,14.85
2022-10-04T07:37:36.491Z,14.68
2022-10-04T07:40:29.224Z,14.95
2022-10-04T07:43:05.122Z,14.96
2022-10-04T07:45:40.211Z,14.87
2022-10-04T07:48:15.912Z,15.24
2022-10-04T07:51:01.295Z,15.34
2022-10-04T07:53:30.061Z,15.25
2022-10-04T07:56:11.010Z,15.22
2022-10-04T07:58:45.996Z,15.39
2022-10-04T08:01:25.921Z,15.42
2022-10-04T08:04:11.286Z,14.94
2022-10-04T08:06:59.746Z,15.26
2022-10-04T08:09:49.171Z,15.22
2022-10-04T08:12:19.301Z,15.18
2022-10-04T08:14:52.383Z,15.39
2022-10-04T08:17:39.438Z,15.33
2022-10-04T08:20:45.319Z,15.55
2022-10-04T08:23:29.145Z,15.58
2022-10-04T08:26:12.647Z,15.77
2022-10-04T08:29:01.650Z,15.88
2022-10-04T08:31:58.291Z,15.85
2022-10-04T08:34:33.219Z,16.13
2022-10-04T08:37:11.280Z,16.24
2022-10-04T08:39:52.868Z,16.30
2022-10-04T08:42:48.192Z,16.23
2022-10-04T08:45:38.112Z,16.42
2022-10-04T08:48:26.279Z,16.46
2022-10-04T08:51:28.174Z,16.58
2022-10-04T08:54:35.483Z,16.70
2022-10-04T08:57:15.632Z,16.84
2022-10-04T09:00:10.528Z,16.93
2022-10-04T09:03:07.356Z,17.06
2022-10-04T09:05:56.712Z,16.67
2022-10-04T09:09:00.453Z,17.27
2022-10-04T09:11:50.959Z,17.28
2022-10-04T09:14:45.733Z,17.50
2022-10-04T09:17:23.069Z,17.78
2022-10-04T09:20:26.160Z,17.88
2022-10-04T09:22:57.096Z,17.99
2022-10-04T09:25:41.786Z,18.17
2022-10-04T09:28:26.982Z,18.31
2022-10-04T09:30:56.289Z,18.38
2022-10-04T09:33:33.402Z,17.85
2022-10-04T09:36:19.304Z,18.62
2022-10-04T09:39:29.071Z,18.74
2022-10-04T09:42:26.850Z,18.86
2022-10-04T09:45:40.668Z,19.00
2022-10-04T09:48:35.226Z,19.18
2022-10-04T09:51:29.188Z,19.33
2022-10-04T09:54:11.732Z,19.26
2022-10-04T09:56:56.760Z,19.54
2022-10-04T09:59:44.637Z,19.59
2022-10-04T10:02:38.545Z,19.73
2022-10-04T10:05:26.849Z,19.58
2022-10-04T10:08:05.991Z,19.71
2022-10-04T10:11:19.969Z,19.62
2022-10-04T10:14:01.150Z,19.95
2022-10-04T10:16:49.635Z,20.01
2022-10-04T10:20:00.083Z,19.93
2022-10-04T10:23:00.466Z,20.62
2022-10-04T10:25:59.164Z,21.83
2022-10-04T10:28:45.836Z,25.01
2022-10-04T10:31:24.113Z,26.62
2022-10-04T10:34:27.646Z,27.08
2022-10-04T10:37:02.970Z,27.21
2022-10-04T10:39:47.890Z,27.17
2022-10-04T10:42:52.018Z,25.50
2022-10-04T10:45:37.990Z,24.67
2022-10-04T10:48:40.309Z,24.25
2022-10-04T10:51:18.504Z,23.36
2022-10-04T10:54:12.473Z,22.71
2022-10-04T10:56:51.618Z,22.60
2022-10-04T10:59:49.904Z,22.65
2022-10-04T11:02:50.336Z,22.86
2022-10-04T11:05:36.719Z,23.16
2022-10-04T11:08:16.274Z,23.57
2022-10-04T11:10:54.736Z,23.65
2022-10-04T11:13:51.441Z,23.81
2022-10-04T11:16:43.535Z,24.51
2022-10-04T11:19:36.447Z,25.08
2022-10-04T11:22:48.982Z,24.14
2022-10-04T11:25:36.048Z,23.42
2022-10-04T11:28:18.265Z,22.95
2022-10-04T11:31:23.830Z,22.75
2022-10-04T11:34:16.545Z,22.69
2022-10-04T11:36:56.227Z,22.75
2022-10-04T11:40:09.940Z,23.00
2022-10-04T11:43:20.110Z,23.02
2022-10-04T11:46:13.236Z,22.99
2022-10-04T11:48:58.850Z,22.78
2022-10-04T11:51:48.615Z,22.91
2022-10-04T11:54:18.027Z,23.21
2022-10-04T11:57:12.272Z,23.51
2022-10-04T11:59:55.349Z,23.40
2022-10-04T12:02:41.206Z,23.56
2022-10-04T12:05:35.598Z,23.49
2022-10-04T12:08:33.434Z,23.01
2022-10-04T12:10:59.719Z,23.28
2022-10-04T12:13:37.874Z,23.15
2022-10-04T12:16:29.739Z,23.50
2022-10-04T12:19:27.407Z,23.27
2022-10-04T12:22:16.122Z,23.12
2022-10-04T12:25:37.428Z,22.54
2022-10-04T12:28:27.038Z,23.04
2022-10-04T12:31:05.634Z,23.49
2022-10-04T12:33:50.156Z,23.06
2022-10-04T12:36:26.142Z,23.12
2022-10-04T12:39:23.209Z,23.56
2022-10-04T12:42:07.833Z,23.86
2022-10-04T12:44:55.062Z,24.08
2022-10-04T12:47:37.256Z,24.02
2022-10-04T12:50:35.466Z,23.55
2022-10-04T12:53:14.545Z,23.89
2022-10-04T12:56:18.977Z,24.44
2022-10-04T12:59:17.161Z,25.16
2022-10-04T13:02:25.097Z,25.76
2022-10-04T13:04:59.124Z,25.60
2022-10-04T13:07:28.571Z,24.88
2022-10-04T13:10:36.753Z,24.52
2022-10-04T13:13:17.491Z,24.61
2022-10-04T13:19:05.951Z,24.80
2022-10-04T13:21:35.001Z,24.84
2022-10-04T13:24:15.354Z,24.84
2022-10-04T13:27:02.882Z,24.64
2022-10-04T13:29:51.222Z,24.12
2022-10-04T13:32:28.087Z,24.13
2022-10-04T13:35:12.464Z,24.10
2022-10-04T13:38:16.246Z,23.87
2022-10-04T13:41:03.363Z,23.78
2022-10-04T13:44:18.333Z,23.52
2022-10-04T13:47:10.598Z,23.88
2022-10-04T13:50:23.655Z,23.95
2022-10-04T13:53:23.258Z,24.61
2022-10-04T13:56:36.557Z,24.71
2022-10-04T13:59:34.518Z,24.57
2022-10-04T14:02:21.713Z,24.82
2022-10-04T14:05:27.579Z,25.04
2022-10-04T14:08:12.187Z,24.59
2022-10-04T14:11:09.519Z,24.60
2022-10-04T14:13:42.974Z,24.52
2022-10-04T14:16:46.527Z,24.56
2022-10-04T14:19:41.914Z,24.80
2022-10-04T14:22:11.657Z,24.69
2022-10-04T14:25:05.257Z,24.53
2022-10-04T14:28:13.787Z,24.34
2022-10-04T14:30:59.059Z,24.29
2022-10-04T14:33:59.278Z,24.32
2022-10-04T14:37:09.447Z,24.15
2022-10-04T14:39:53.484Z,24.34
2022-10-04T14:42:46.772Z,24.31
2022-10-04T14:45:42.655Z,24.49
2022-10-04T14:48:27.515Z,24.55
2022-10-04T14:51:19.390Z,24.28
2022-10-04T14:54:00.782Z,24.30
2022-10-04T14:56:43.956Z,24.18
2022-10-04T14:59:22.554Z,24.16
2022-10-04T15:02:01.332Z,24.17
2022-10-04T15:05:08.162Z,24.36
2022-10-04T15:07:52.075Z,24.24
2022-10-04T15:10:33.028Z,24.31
2022-10-04T15:13:19.881Z,24.18
2022-10-04T15:15:56.611Z,24.02
2022-10-04T15:18:33.789Z,23.99
2022-10-04T15:21:19.989Z,23.97
2022-10-04T15:23:54.513Z,23.80
2022-10-04T15:26:20.785Z,24.01
2022-10-04T15:28:50.240Z,23.87
2022-10-04T15:31:34.443Z,23.56
2022-10-04T15:34:13.752Z,23.59
2022-10-04T15:37:02.924Z,23.69
2022-10-04T15:39:58.390Z,23.75
2022-10-04T15:42:29.169Z,23.83
2022-10-04T15:45:30.100Z,23.88
2022-10-04T15:47:56.618Z,24.07
2022-10-04T15:50:30.624Z,23.97
2022-10-04T15:53:34.664Z,24.47
2022-10-04T15:56:40.182Z,24.46
2022-10-04T15:59:33.589Z,24.40
2022-10-04T16:02:17.218Z,23.65
2022-10-04T16:05:03.311Z,23.97
2022-10-04T16:07:52.280Z,24.02
2022-10-04T16:10:35.294Z,23.94
2022-10-04T16:13:16.933Z,23.97
2022-10-04T16:15:49.462Z,23.68
2022-10-04T16:18:25.103Z,23.82
2022-10-04T16:20:57.685Z,23.59
2022-10-04T16:23:32.214Z,23.33
2022-10-04T16:26:10.350Z,22.92
2022-10-04T16:28:58.155Z,22.90
2022-10-04T16:31:50.565Z,22.89
2022-10-04T16:34:27.061Z,22.75
2022-10-04T16:37:05.102Z,22.76
2022-10-04T16:39:59.250Z,22.39
2022-10-04T16:42:34.833Z,22.59
2022-10-04T16:45:39.818Z,22.11
2022-10-04T16:48:23.350Z,22.01
2022-10-04T16:51:05.341Z,22.11
2022-10-04T16:53:49.411Z,22.02
2022-10-04T16:56:24.718Z,21.80
2022-10-04T16:58:51.059Z,21.66
2022-10-04T17:01:21.030Z,21.74
2022-10-04T17:04:25.517Z,21.83
2022-10-04T17:07:12.072Z,21.88
2022-10-04T17:09:52.885Z,21.79
2022-10-04T17:12:45.779Z,21.85
2022-10-04T17:15:15.060Z,21.79
2022-10-04T17:17:54.684Z,21.64
2022-10-04T17:20:45.827Z,21.36
2022-10-04T17:23:30.435Z,21.59
2022-10-04T17:26:05.933Z,21.28
2022-10-04T17:28:57.165Z,20.97
2022-10-04T17:31:39.776Z,20.90
2022-10-04T17:34:28.540Z,21.06
2022-10-04T17:37:05.915Z,20.92
2022-10-04T17:40:08.672Z,20.90
2022-10-04T17:42:44.454Z,21.17
2022-10-04T17:45:20.097Z,21.10
2022-10-04T17:48:32.931Z,20.99
2022-10-04T17:51:20.992Z,21.02
2022-10-04T17:54:13.154Z,20.32
2022-10-04T17:56:45.381Z,20.71
2022-10-04T17:59:30.824Z,20.49
2022-10-04T18:02:10.979Z,20.50
2022-10-04T18:04:48.645Z,20.60
2022-10-04T18:07:20.960Z,20.15
2022-10-04T18:10:17.622Z,20.51
2022-10-04T18:12:57.882Z,20.42
2022-10-04T18:15:31.957Z,20.26
2022-10-04T18:18:07.588Z,20.37
2022-10-04T18:20:37.607Z,20.35
2022-10-04T18:23:28.214Z,20.34
2022-10-04T18:25:59.325Z,20.26
2022-10-04T18:28:25.930Z,19.93
2022-10-04T18:30:59.092Z,19.89
2022-10-04T18:33:35.491Z,20.07
2022-10-04T18:36:18.923Z,20.03
2022-10-04T18:38:58.281Z,19.70
2022-10-04T18:41:44.894Z,19.59
2022-10-04T18:44:16.668Z,19.66
2022-10-04T18:46:47.958Z,19.92
2022-10-04T18:49:25.395Z,19.64
2022-10-04T18:52:07.658Z,19.83
2022-10-04T18:55:13.129Z,19.73
2022-10-04T18:58:03.252Z,19.68
2022-10-04T19:00:59.068Z,19.18
2022-10-04T19:03:40.431Z,19.56
2022-10-04T19:06:32.115Z,19.55
2022-10-04T19:09:04.309Z,19.72
2022-10-04T19:11:47.367Z,19.55
2022-10-04T19:14:31.466Z,19.42
2022-10-04T19:17:05.246Z,19.55
2022-10-04T19:19:51.081Z,19.22
2022-10-04T19:22:50.598Z,19.23
2022-10-04T19:25:35.157Z,19.03
2022-10-04T19:28:16.703Z,18.76
2022-10-04T19:31:07.007Z,18.74
2022-10-04T19:33:43.202Z,19.07
2022-10-04T19:36:31.301Z,19.16
2022-10-04T19:39:15.879Z,19.22
2022-10-04T19:42:04.810Z,18.76
2022-10-04T19:44:43.438Z,18.90
2022-10-04T19:47:33.558Z,18.79
2022-10-04T19:50:17.615Z,18.51
2022-10-04T19:52:49.357Z,18.55
2022-10-04T19:55:29.344Z,18.87
2022-10-04T19:58:06.511Z,18.79
2022-10-04T20:00:35.615Z,18.66
2022-10-04T20:03:02.393Z,18.53
2022-10-04T20:05:29.099Z,18.23
2022-10-04T20:08:04.899Z,18.30
2022-10-04T20:10:36.079Z,18.59
2022-10-04T20:13:23.507Z,18.60
2022-10-04T20:15:52.368Z,18.39
2022-10-04T20:18:34.414Z,18.46
2022-10-04T20:21:01.310Z,18.46
2022-10-04T20:23:40.074Z,18.44
2022-10-04T20:26:10.903Z,18.15
2022-10-04T20:28:41.450Z,18.41
2022-10-04T20:31:32.939Z,18.31
2022-10-04T20:34:23.096Z,18.44
2022-10-04T20:36:51.656Z,18.39
2022-10-04T20:39:50.423Z,18.52
2022-10-04T20:42:36.951Z,18.34
2022-10-04T20:45:09.209Z,18.43
2022-10-04T20:47:39.805Z,18.36
2022-10-04T20:50:15.184Z,18.55
2022-10-04T20:52:47.587Z,18.60
2022-10-04T20:55:20.435Z,18.60
2022-10-04T20:57:47.395Z,18.40
2022-10-04T21:00:22.387Z,18.72
2022-10-04T21:02:49.900Z,18.69
2022-10-04T21:05:24.598Z,18.38
2022-10-04T21:08:13.565Z,19.03
2022-10-04T21:10:59.869Z,18.88
2022-10-04T21:13:50.517Z,18.77
2022-10-04T21:16:34.053Z,18.57
2022-10-04T21:19:47.015Z,18.72
2022-10-04T21:22:16.561Z,18.69
2022-10-04T21:24:54.346Z,18.66
2022-10-04T21:27:26.876Z,18.67
2022-10-04T21:29:53.657Z,18.09
2022-10-04T21:32:20.991Z,18.81
2022-10-04T21:34:55.051Z,18.40
2022-10-04T21:37:21.975Z,19.13
2022-10-04T21:39:48.326Z,18.68
2022-10-04T21:42:14.743Z,18.92
2022-10-04T21:44:41.178Z,18.82
2022-10-04T21:47:07.546Z,18.82
2022-10-04T21:49:33.937Z,18.88
2022-10-04T21:52:00.301Z,18.76
2022-10-04T21:54:26.615Z,18.94
2022-10-04T21:56:54.008Z,18.64
2022-10-04T21:59:21.167Z,18.13
2022-10-04T22:01:47.945Z,18.55
2022-10-04T22:04:14.351Z,18.12
2022-10-04T22:06:41.298Z,18.79
2022-10-04T22:09:08.211Z,19.06
2022-10-04T22:11:34.599Z,18.91
2022-10-04T22:14:00.924Z,18.92
2022-10-04T22:16:27.450Z,17.82
2022-10-04T22:18:54.409Z,18.33
2022-10-04T22:21:20.909Z,17.71
2022-10-04T22:23:47.358Z,18.87
2022-10-04T22:26:19.286Z,18.77
2022-10-04T22:28:56.191Z,17.82
2022-10-04T22:31:26.870Z,18.53
2022-10-04T22:33:54.101Z,18.30
2022-10-04T22:36:26.955Z,17.69
2022-10-04T22:38:58.911Z,18.32
2022-10-04T22:41:31.942Z,18.00
2022-10-04T22:44:02.799Z,17.51
2022-10-04T22:46:36.067Z,18.11
2022-10-04T22:49:03.160Z,18.25
2022-10-04T22:51:29.835Z,18.18
2022-10-04T22:53:56.433Z,18.10
2022-10-04T22:56:22.855Z,17.27
2022-10-04T22:58:49.225Z,17.25
2022-10-04T23:01:18.338Z,17.51
2022-10-04T23:03:47.036Z,17.58
2022-10-04T23:06:14.311Z,17.45
2022-10-04T23:08:44.664Z,17.31
2022-10-04T23:11:11.605Z,17.55
2022-10-04T23:13:38.066Z,17.34
2022-10-04T23:16:23.187Z,17.45
2022-10-04T23:18:50.656Z,17.32
2022-10-04T23:21:23.836Z,17.22
2022-10-04T23:23:52.979Z,17.34
2022-10-04T23:26:24.988Z,16.92
2022-10-04T23:28:51.801Z,17.13
2022-10-04T23:31:27.345Z,16.78
2022-10-04T23:33:56.751Z,17.05
2022-10-04T23:36:23.372Z,17.25
2022-10-04T23:38:56.338Z,16.99
2022-10-04T23:41:23.148Z,16.98
2022-10-04T23:43:49.496Z,17.05
2022-10-04T23:46:19.326Z,17.02
2022-10-04T23:48:46.824Z,17.37
2022-10-04T23:51:16.753Z,16.86
2022-10-04T23:53:46.346Z,17.65
2022-10-04T23:56:20.049Z,17.72
2022-10-04T23:58:46.970Z,17.51
